createdAt,value
2022-11-18T00:02:15.253Z,2.53
2022-11-18T00:12:45.888Z,2.67
2022-11-18T00:22:59.435Z,2.38
2022-11-18T00:33:48.187Z,2.38
2022-11-18T00:54:29.653Z,3.00
2022-11-18T01:04:35.655Z,2.58
2022-11-18T01:14:47.273Z,3.38
2022-11-18T01:24:51.954Z,3.70
2022-11-18T01:34:57.504Z,3.25
2022-11-18T01:45:10.301Z,3.25
2022-11-18T01:55:18.710Z,3.25
2022-11-18T02:05:23.184Z,3.42
2022-11-18T02:15:43.534Z,2.55
2022-11-18T02:26:16.496Z,3.10
2022-11-18T02:36:31.941Z,3.35
2022-11-18T02:46:44.603Z,2.95
2022-11-18T02:56:53.054Z,3.58
2022-11-18T03:07:11.856Z,2.95
2022-11-18T03:17:46.984Z,3.05
2022-11-18T03:28:56.863Z,2.97
2022-11-18T04:13:05.967Z,3.00
2022-11-18T04:33:29.801Z,3.38
2022-11-18T04:43:32.969Z,3.83
2022-11-18T04:53:39.702Z,4.05
2022-11-18T05:03:47.670Z,3.42
2022-11-18T05:13:56.945Z,2.38
2022-11-18T05:24:00.903Z,3.28
2022-11-18T05:34:05.629Z,3.55
2022-11-18T05:44:08.864Z,2.90
2022-11-18T05:54:20.066Z,3.92
2022-11-18T06:04:50.411Z,3.13
2022-11-18T06:15:05.715Z,3.95
2022-11-18T06:25:09.448Z,3.95
2022-11-18T06:35:14.606Z,3.95
2022-11-18T06:45:20.686Z,3.08
2022-11-18T06:55:28.309Z,2.72
2022-11-18T07:05:31.635Z,4.55
2022-11-18T07:15:38.588Z,2.63
2022-11-18T07:25:45.433Z,3.88
2022-11-18T07:35:50.146Z,3.67
2022-11-18T07:45:53.316Z,4.15
2022-11-18T07:56:01.550Z,3.72
2022-11-18T08:06:18.593Z,4.33
2022-11-18T08:16:25.546Z,2.92
2022-11-18T08:26:30.008Z,4.28
2022-11-18T08:36:37.328Z,4.47
2022-11-18T08:46:49.648Z,3.00
2022-11-18T08:56:54.452Z,4.60
2022-11-18T09:06:57.634Z,3.67
2022-11-18T09:17:04.352Z,4.10
2022-11-18T09:27:13.679Z,3.42
2022-11-18T09:37:20.096Z,2.90
2022-11-18T09:47:29.473Z,2.67
2022-11-18T09:57:41.193Z,2.80
2022-11-18T10:08:02.807Z,3.53
2022-11-18T10:28:45.759Z,4.10
2022-11-18T10:39:07.311Z,2.70
2022-11-18T10:49:17.007Z,3.13
2022-11-18T10:59:31.927Z,2.80
2022-11-18T11:09:36.810Z,2.47
2022-11-18T11:19:52.849Z,4.28
2022-11-18T11:30:18.208Z,4.57
2022-11-18T11:40:31.001Z,6.15
2022-11-18T11:51:03.900Z,2.90
2022-11-18T12:11:32.754Z,3.92
2022-11-18T12:22:00.916Z,2.38
2022-11-18T12:32:16.682Z,3.40
2022-11-18T12:43:09.501Z,3.05
2022-11-18T12:53:33.055Z,3.65
2022-11-18T13:03:37.694Z,3.33
2022-11-18T13:13:42.331Z,4.15
2022-11-18T13:23:56.322Z,2.17
2022-11-18T13:34:02.819Z,4.03
2022-11-18T13:44:18.474Z,6.82
2022-11-18T13:54:26.257Z,2.83
2022-11-18T14:04:33.338Z,3.65
2022-11-18T14:14:38.335Z,5.60
2022-11-18T14:24:55.150Z,4.88
2022-11-18T14:35:01.466Z,2.42
2022-11-18T14:45:06.771Z,2.90
2022-11-18T14:55:11.478Z,3.17
2022-11-18T15:05:21.733Z,2.63
2022-11-18T15:15:24.903Z,1.67
2022-11-18T15:25:29.452Z,2.50
2022-11-18T15:35:32.501Z,2.97
2022-11-18T15:45:36.983Z,1.88
2022-11-18T15:55:45.978Z,2.08
2022-11-18T16:05:52.977Z,2.55
2022-11-18T16:15:56.694Z,1.75
2022-11-18T16:26:01.300Z,2.20
2022-11-18T16:36:06.491Z,2.17
2022-11-18T16:46:12.116Z,2.00
2022-11-18T16:56:15.306Z,1.88
2022-11-18T17:06:20.526Z,1.70
2022-11-18T17:16:24.174Z,1.63
2022-11-18T17:26:30.284Z,2.08
2022-11-18T17:36:36.890Z,2.28
2022-11-18T17:46:42.100Z,2.55
2022-11-18T17:56:45.310Z,1.73
2022-11-18T18:06:53.983Z,2.17
2022-11-18T18:16:57.220Z,1.65
2022-11-18T18:27:03.517Z,2.33
2022-11-18T18:37:06.619Z,1.15
2022-11-18T18:47:11.266Z,2.05
2022-11-18T18:57:17.337Z,1.40
2022-11-18T19:07:22.910Z,1.27
2022-11-18T19:17:26.023Z,2.25
2022-11-18T19:27:30.747Z,2.72
2022-11-18T19:37:35.882Z,1.25
2022-11-18T19:47:43.252Z,1.40
2022-11-18T19:57:48.820Z,1.83
2022-11-18T20:07:56.460Z,2.40
2022-11-18T20:18:00.899Z,1.80
2022-11-18T20:28:07.691Z,1.33
2022-11-18T20:38:12.786Z,1.30
2022-11-18T20:48:21.509Z,1.50
2022-11-18T20:58:25.180Z,2.42
2022-11-18T21:08:35.763Z,1.65
2022-11-18T21:18:42.051Z,1.10
2022-11-18T21:28:54.670Z,1.00
2022-11-18T21:39:00.212Z,2.35
2022-11-18T21:49:16.517Z,1.83
2022-11-18T21:59:23.967Z,1.27
2022-11-18T22:09:36.037Z,1.40
2022-11-18T22:19:39.602Z,1.52
2022-11-18T22:29:44.462Z,0.95
2022-11-18T22:39:50.607Z,1.08
2022-11-18T22:49:56.632Z,1.23
2022-11-18T23:00:02.629Z,1.55
2022-11-18T23:10:07.506Z,2.22
2022-11-18T23:20:11.465Z,2.45
2022-11-18T23:30:16.683Z,1.67
2022-11-18T23:40:19.795Z,2.65
2022-11-18T23:50:24.456Z,1.40
